sensor_id;sensor_type;location;lat;lon;timestamp;pressure;altitude;pressure_sealevel;temperature;humidity
50592;BME280;36548;50.506;30.834;2023-09-07T00:01:00;100719.80;;;20.17;59.38
50592;BME280;36548;50.506;30.834;2023-09-07T00:02:11;100718.64;;;20.19;59.38
50592;BME280;36548;50.506;30.834;2023-09-07T00:03:21;100720.41;;;20.10;59.72
50592;BME280;36548;50.506;30.834;2023-09-07T00:04:39;100718.80;;;20.18;59.89
50592;BME280;36548;50.506;30.834;2023-09-07T00:05:49;100727.47;;;20.03;60.01
50592;BME280;36548;50.506;30.834;2023-09-07T00:07:00;100730.05;;;20.05;59.96
50592;BME280;36548;50.506;30.834;2023-09-07T00:08:09;100732.53;;;19.88;60.47
50592;BME280;36548;50.506;30.834;2023-09-07T00:09:27;100730.20;;;20.03;60.35
50592;BME280;36548;50.506;30.834;2023-09-07T00:10:36;100728.54;;;19.83;60.45
50592;BME280;36548;50.506;30.834;2023-09-07T00:11:47;100722.94;;;19.74;60.72
50592;BME280;36548;50.506;30.834;2023-09-07T00:13:04;100728.66;;;19.91;60.66
50592;BME280;36548;50.506;30.834;2023-09-07T00:14:13;100727.53;;;19.74;60.89
50592;BME280;36548;50.506;30.834;2023-09-07T00:15:23;100734.68;;;19.75;60.62
50592;BME280;36548;50.506;30.834;2023-09-07T00:16:40;100724.36;;;19.79;60.83
50592;BME280;36548;50.506;30.834;2023-09-07T00:17:52;100729.38;;;19.73;60.59
50592;BME280;36548;50.506;30.834;2023-09-07T00:19:07;100733.27;;;19.81;60.71
50592;BME280;36548;50.506;30.834;2023-09-07T00:20:17;100736.70;;;19.73;60.71
50592;BME280;36548;50.506;30.834;2023-09-07T00:21:28;100734.55;;;19.67;60.78
50592;BME280;36548;50.506;30.834;2023-09-07T00:22:39;100732.55;;;19.69;60.73
50592;BME280;36548;50.506;30.834;2023-09-07T00:23:49;100742.88;;;19.65;60.86
50592;BME280;36548;50.506;30.834;2023-09-07T00:24:59;100748.94;;;19.39;61.63
50592;BME280;36548;50.506;30.834;2023-09-07T00:26:10;100746.07;;;19.41;61.70
50592;BME280;36548;50.506;30.834;2023-09-07T00:27:27;100733.85;;;19.65;61.32
50592;BME280;36548;50.506;30.834;2023-09-07T00:28:36;100745.33;;;19.49;61.54
50592;BME280;36548;50.506;30.834;2023-09-07T00:29:52;100732.30;;;19.52;61.70
50592;BME280;36548;50.506;30.834;2023-09-07T00:31:02;100744.94;;;19.34;61.92
50592;BME280;36548;50.506;30.834;2023-09-07T00:32:27;100743.48;;;19.49;61.89
50592;BME280;36548;50.506;30.834;2023-09-07T00:33:36;100744.78;;;19.45;61.55
50592;BME280;36548;50.506;30.834;2023-09-07T00:34:47;100752.52;;;19.40;61.79
50592;BME280;36548;50.506;30.834;2023-09-07T00:35:57;100753.10;;;19.34;61.84
50592;BME280;36548;50.506;30.834;2023-09-07T00:37:13;100754.39;;;19.39;62.03
50592;BME280;36548;50.506;30.834;2023-09-07T00:38:22;100753.80;;;19.26;62.22
50592;BME280;36548;50.506;30.834;2023-09-07T00:39:37;100751.94;;;19.27;62.54
50592;BME280;36548;50.506;30.834;2023-09-07T00:40:47;100755.68;;;19.16;62.48
50592;BME280;36548;50.506;30.834;2023-09-07T00:42:02;100749.36;;;19.15;62.79
50592;BME280;36548;50.506;30.834;2023-09-07T00:43:12;100753.66;;;19.18;62.57
50592;BME280;36548;50.506;30.834;2023-09-07T00:44:21;100755.68;;;19.16;62.45
50592;BME280;36548;50.506;30.834;2023-09-07T00:45:31;100758.52;;;19.14;62.54
50592;BME280;36548;50.506;30.834;2023-09-07T00:46:47;100751.67;;;19.20;62.55
50592;BME280;36548;50.506;30.834;2023-09-07T00:47:59;100761.53;;;19.11;62.62
50592;BME280;36548;50.506;30.834;2023-09-07T00:49:15;100762.12;;;19.24;62.51
50592;BME280;36548;50.506;30.834;2023-09-07T00:50:25;100767.70;;;19.03;62.85
50592;BME280;36548;50.506;30.834;2023-09-07T00:51:40;100755.23;;;19.11;63.00
50592;BME280;36548;50.506;30.834;2023-09-07T00:52:50;100764.83;;;19.05;62.89
50592;BME280;36548;50.506;30.834;2023-09-07T00:54:05;100768.98;;;18.99;63.26
50592;BME280;36548;50.506;30.834;2023-09-07T00:55:15;100770.67;;;19.00;63.06
50592;BME280;36548;50.506;30.834;2023-09-07T00:56:25;100765.23;;;19.00;63.10
50592;BME280;36548;50.506;30.834;2023-09-07T00:57:36;100770.47;;;18.82;63.50
50592;BME280;36548;50.506;30.834;2023-09-07T00:58:49;100772.94;;;18.85;63.33
50592;BME280;36548;50.506;30.834;2023-09-07T00:59:59;100768.48;;;18.84;63.43
50592;BME280;36548;50.506;30.834;2023-09-07T01:01:14;100759.80;;;19.00;63.33
50592;BME280;36548;50.506;30.834;2023-09-07T01:02:24;100770.47;;;18.82;63.53
50592;BME280;36548;50.506;30.834;2023-09-07T01:04:00;100766.05;;;18.81;63.88
50592;BME280;36548;50.506;30.834;2023-09-07T01:05:12;100769.77;;;18.80;63.70
50592;BME280;36548;50.506;30.834;2023-09-07T01:06:33;100774.55;;;18.88;63.62
50592;BME280;36548;50.506;30.834;2023-09-07T01:07:47;100768.61;;;18.73;63.82
50592;BME280;36548;50.506;30.834;2023-09-07T01:09:01;100766.39;;;18.88;63.49
50592;BME280;36548;50.506;30.834;2023-09-07T01:10:12;100764.23;;;18.91;63.07
50592;BME280;36548;50.506;30.834;2023-09-07T01:11:35;100760.53;;;19.02;63.07
50592;BME280;36548;50.506;30.834;2023-09-07T01:12:42;100761.81;;;18.98;62.92
50592;BME280;36548;50.506;30.834;2023-09-07T01:13:57;100750.64;;;19.01;63.10
50592;BME280;36548;50.506;30.834;2023-09-07T01:15:08;100756.96;;;19.02;62.72
50592;BME280;36548;50.506;30.834;2023-09-07T01:16:20;100754.35;;;19.00;62.47
50592;BME280;36548;50.506;30.834;2023-09-07T01:17:36;100752.08;;;19.05;62.57
50592;BME280;36548;50.506;30.834;2023-09-07T01:18:46;100762.11;;;19.05;62.34
50592;BME280;36548;50.506;30.834;2023-09-07T01:19:57;100758.66;;;19.13;62.43
50592;BME280;36548;50.506;30.834;2023-09-07T01:21:15;100763.84;;;19.16;62.46
50592;BME280;36548;50.506;30.834;2023-09-07T01:22:26;100772.13;;;19.14;62.04
50592;BME280;36548;50.506;30.834;2023-09-07T01:40:07;100772.34;;;18.82;63.51
50592;BME280;36548;50.506;30.834;2023-09-07T01:41:17;100777.70;;;18.52;64.02
50592;BME280;36548;50.506;30.834;2023-09-07T01:42:33;100782.66;;;18.78;63.82
50592;BME280;36548;50.506;30.834;2023-09-07T01:43:44;100781.76;;;18.68;63.59
50592;BME280;36548;50.506;30.834;2023-09-07T01:44:59;100774.41;;;18.89;63.54
50592;BME280;36548;50.506;30.834;2023-09-07T01:46:10;100782.21;;;18.73;63.34
50592;BME280;36548;50.506;30.834;2023-09-07T01:47:26;100785.49;;;18.77;63.59
50592;BME280;36548;50.506;30.834;2023-09-07T01:48:35;100789.23;;;18.76;63.36
50592;BME280;36548;50.506;30.834;2023-09-07T01:49:51;100772.02;;;18.65;64.02
50592;BME280;36548;50.506;30.834;2023-09-07T01:51:01;100786.88;;;18.61;63.94
50592;BME280;36548;50.506;30.834;2023-09-07T01:52:17;100786.34;;;18.67;63.88
50592;BME280;36548;50.506;30.834;2023-09-07T01:53:27;100789.29;;;18.54;64.09
50592;BME280;36548;50.506;30.834;2023-09-07T01:54:37;100785.58;;;18.55;64.04
50592;BME280;36548;50.506;30.834;2023-09-07T01:55:48;100787.98;;;18.49;64.19
50592;BME280;36548;50.506;30.834;2023-09-07T01:57:04;100781.47;;;18.71;64.08
50592;BME280;36548;50.506;30.834;2023-09-07T01:58:14;100783.85;;;18.54;64.03
50592;BME280;36548;50.506;30.834;2023-09-07T01:59:30;100780.28;;;18.54;64.26
50592;BME280;36548;50.506;30.834;2023-09-07T02:00:40;100793.66;;;18.36;64.64
50592;BME280;36548;50.506;30.834;2023-09-07T02:01:55;100788.12;;;18.47;64.64
50592;BME280;36548;50.506;30.834;2023-09-07T02:03:06;100792.22;;;18.32;64.73
50592;BME280;36548;50.506;30.834;2023-09-07T02:04:22;100787.70;;;18.42;64.98
50592;BME280;36548;50.506;30.834;2023-09-07T02:05:32;100787.52;;;18.34;64.91
50592;BME280;36548;50.506;30.834;2023-09-07T02:06:47;100795.39;;;18.37;64.98
50592;BME280;36548;50.506;30.834;2023-09-07T02:07:58;100792.81;;;18.35;64.98
50592;BME280;36548;50.506;30.834;2023-09-07T02:09:08;100789.31;;;18.23;65.21
50592;BME280;36548;50.506;30.834;2023-09-07T02:10:18;100791.75;;;18.27;65.11
50592;BME280;36548;50.506;30.834;2023-09-07T02:11:29;100788.79;;;18.30;64.98
50592;BME280;36548;50.506;30.834;2023-09-07T02:12:45;100790.63;;;18.29;65.38
50592;BME280;36548;50.506;30.834;2023-09-07T02:13:56;100789.87;;;18.17;65.38
50592;BME280;36548;50.506;30.834;2023-09-07T02:15:06;100791.98;;;18.14;65.56
50592;BME280;36548;50.506;30.834;2023-09-07T02:16:22;100792.13;;;18.12;66.00
50592;BME280;36548;50.506;30.834;2023-09-07T02:17:31;100792.27;;;18.11;66.01
50592;BME280;36548;50.506;30.834;2023-09-07T02:18:49;100788.85;;;18.18;65.88
50592;BME280;36548;50.506;30.834;2023-09-07T02:19:59;100789.55;;;18.11;65.87
50592;BME280;36548;50.506;30.834;2023-09-07T02:21:15;100796.84;;;18.10;66.20
50592;BME280;36548;50.506;30.834;2023-09-07T02:22:24;100800.50;;;17.99;66.26
50592;BME280;36548;50.506;30.834;2023-09-07T02:23:40;100787.35;;;18.04;66.24
50592;BME280;36548;50.506;30.834;2023-09-07T02:24:49;100796.77;;;18.00;66.13
50592;BME280;36548;50.506;30.834;2023-09-07T02:26:24;100792.13;;;18.12;66.04
50592;BME280;36548;50.506;30.834;2023-09-07T02:27:35;100797.69;;;17.89;66.26
50592;BME280;36548;50.506;30.834;2023-09-07T02:28:50;100793.39;;;18.08;66.14
50592;BME280;36548;50.506;30.834;2023-09-07T02:30:01;100800.88;;;17.95;66.09
50592;BME280;36548;50.506;30.834;2023-09-07T02:31:11;100797.08;;;17.86;66.33
50592;BME280;36548;50.506;30.834;2023-09-07T02:32:22;100799.09;;;17.84;66.29
50592;BME280;36548;50.506;30.834;2023-09-07T02:33:38;100803.08;;;18.01;66.28
50592;BME280;36548;50.506;30.834;2023-09-07T02:34:52;100801.39;;;17.88;66.22
50592;BME280;36548;50.506;30.834;2023-09-07T02:36:07;100804.48;;;17.95;66.39
50592;BME280;36548;50.506;30.834;2023-09-07T02:37:17;100798.20;;;17.83;66.30
50592;BME280;36548;50.506;30.834;2023-09-07T02:38:28;100809.27;;;17.70;66.77
50592;BME280;36548;50.506;30.834;2023-09-07T02:39:45;100793.66;;;17.84;66.76
50592;BME280;36548;50.506;30.834;2023-09-07T02:40:57;100811.92;;;17.82;66.65
50592;BME280;36548;50.506;30.834;2023-09-07T02:42:32;100798.67;;;17.88;66.45
50592;BME280;36548;50.506;30.834;2023-09-07T02:43:42;100809.98;;;17.72;66.70
50592;BME280;36548;50.506;30.834;2023-09-07T02:44:51;100811.52;;;17.65;67.11
50592;BME280;36548;50.506;30.834;2023-09-07T02:46:02;100811.65;;;17.64;67.06
50592;BME280;36548;50.506;30.834;2023-09-07T02:47:18;100811.38;;;17.67;67.25
50592;BME280;36548;50.506;30.834;2023-09-07T02:48:28;100816.09;;;17.65;67.37
50592;BME280;36548;50.506;30.834;2023-09-07T02:49:39;100819.28;;;17.70;67.02
50592;BME280;36548;50.506;30.834;2023-09-07T02:50:52;100812.63;;;17.63;67.09
50592;BME280;36548;50.506;30.834;2023-09-07T02:52:05;100819.51;;;17.46;67.79
50592;BME280;36548;50.506;30.834;2023-09-07T02:53:20;100807.34;;;17.61;67.82
50592;BME280;36548;50.506;30.834;2023-09-07T02:54:29;100819.16;;;17.39;67.94
50592;BME280;36548;50.506;30.834;2023-09-07T02:55:44;100827.94;;;17.64;67.98
50592;BME280;36548;50.506;30.834;2023-09-07T02:56:54;100815.67;;;17.48;67.71
50592;BME280;36548;50.506;30.834;2023-09-07T02:58:10;100822.56;;;17.52;67.91
50592;BME280;36548;50.506;30.834;2023-09-07T02:59:20;100826.19;;;17.42;68.04
50592;BME280;36548;50.506;30.834;2023-09-07T03:00:43;100826.19;;;17.42;68.20
50592;BME280;36548;50.506;30.834;2023-09-07T03:01:54;100826.84;;;17.34;68.23
50592;BME280;36548;50.506;30.834;2023-09-07T03:03:04;100824.22;;;17.44;67.98
50592;BME280;36548;50.506;30.834;2023-09-07T03:04:14;100827.44;;;17.37;68.01
50592;BME280;36548;50.506;30.834;2023-09-07T03:05:27;100830.36;;;17.46;67.95
50592;BME280;36548;50.506;30.834;2023-09-07T03:06:43;100819.42;;;17.36;68.25
50592;BME280;36548;50.506;30.834;2023-09-07T03:07:53;100833.52;;;17.30;68.26
50592;BME280;36548;50.506;30.834;2023-09-07T03:09:08;100822.35;;;17.44;68.22
50592;BME280;36548;50.506;30.834;2023-09-07T03:10:19;100826.94;;;17.44;67.91
50592;BME280;36548;50.506;30.834;2023-09-07T03:11:36;100825.14;;;17.54;68.13
50592;BME280;36548;50.506;30.834;2023-09-07T03:12:47;100830.09;;;17.49;67.51
50592;BME280;36548;50.506;30.834;2023-09-07T03:13:58;100841.00;;;17.37;67.72
50592;BME280;36548;50.506;30.834;2023-09-07T03:15:08;100850.13;;;17.36;67.61
50592;BME280;36548;50.506;30.834;2023-09-07T03:16:23;100835.66;;;17.47;67.73
50592;BME280;36548;50.506;30.834;2023-09-07T03:17:32;100840.41;;;17.34;67.81
50592;BME280;36548;50.506;30.834;2023-09-07T03:18:48;100836.91;;;17.43;67.88
50592;BME280;36548;50.506;30.834;2023-09-07T03:19:58;100852.38;;;17.31;67.68
50592;BME280;36548;50.506;30.834;2023-09-07T03:21:08;100841.89;;;17.27;68.00
50592;BME280;36548;50.506;30.834;2023-09-07T03:22:18;100846.02;;;17.10;68.41
50592;BME280;36548;50.506;30.834;2023-09-07T03:23:33;100846.24;;;17.18;68.57
50592;BME280;36548;50.506;30.834;2023-09-07T03:24:43;100845.81;;;16.90;69.17
50592;BME280;36548;50.506;30.834;2023-09-07T03:25:59;100852.52;;;17.18;68.97
50592;BME280;36548;50.506;30.834;2023-09-07T03:27:11;100850.72;;;17.08;68.98
50592;BME280;36548;50.506;30.834;2023-09-07T03:28:23;100861.54;;;17.19;68.73
50592;BME280;36548;50.506;30.834;2023-09-07T03:29:40;100859.05;;;17.27;68.21
50592;BME280;36548;50.506;30.834;2023-09-07T03:30:51;100857.62;;;17.12;68.42
50592;BME280;36548;50.506;30.834;2023-09-07T03:32:01;100858.47;;;17.12;68.36
50592;BME280;36548;50.506;30.834;2023-09-07T03:33:17;100861.15;;;17.24;68.33
50592;BME280;36548;50.506;30.834;2023-09-07T03:34:26;100858.70;;;17.20;68.11
50592;BME280;36548;50.506;30.834;2023-09-07T03:35:37;100860.66;;;17.30;67.84
50592;BME280;36548;50.506;30.834;2023-09-07T03:36:53;100856.12;;;17.51;67.42
50592;BME280;36548;50.506;30.834;2023-09-07T03:38:03;100873.20;;;17.31;67.44
50592;BME280;36548;50.506;30.834;2023-09-07T03:39:19;100860.30;;;17.55;67.21
50592;BME280;36548;50.506;30.834;2023-09-07T03:40:30;100868.18;;;17.59;66.69
50592;BME280;36548;50.506;30.834;2023-09-07T03:41:45;100866.98;;;17.84;66.65
50592;BME280;36548;50.506;30.834;2023-09-07T03:42:55;100871.19;;;17.77;66.48
50592;BME280;36548;50.506;30.834;2023-09-07T03:44:06;100872.44;;;17.72;65.58
50592;BME280;36548;50.506;30.834;2023-09-07T03:45:21;100868.60;;;17.75;66.27
50592;BME280;36548;50.506;30.834;2023-09-07T03:46:32;100881.20;;;17.76;65.79
50592;BME280;36548;50.506;30.834;2023-09-07T03:47:42;100874.78;;;17.77;66.01
50592;BME280;36548;50.506;30.834;2023-09-07T03:48:54;100885.52;;;17.79;66.09
50592;BME280;36548;50.506;30.834;2023-09-07T03:50:05;100885.15;;;18.04;65.68
50592;BME280;36548;50.506;30.834;2023-09-07T03:51:16;100891.46;;;18.05;64.70
50592;BME280;36548;50.506;30.834;2023-09-07T03:52:33;100885.88;;;18.28;64.28
50592;BME280;36548;50.506;30.834;2023-09-07T03:53:43;100889.66;;;18.15;64.03
50592;BME280;36548;50.506;30.834;2023-09-07T03:54:59;100882.83;;;18.42;63.36
50592;BME280;36548;50.506;30.834;2023-09-07T03:56:09;100894.45;;;18.23;64.25
50592;BME280;36548;50.506;30.834;2023-09-07T03:57:20;100898.48;;;18.29;63.40
50592;BME280;36548;50.506;30.834;2023-09-07T03:58:35;100878.96;;;18.45;63.01
50592;BME280;36548;50.506;30.834;2023-09-07T03:59:47;100880.73;;;18.55;63.14
50592;BME280;36548;50.506;30.834;2023-09-07T04:01:02;100882.39;;;19.08;62.40
50592;BME280;36548;50.506;30.834;2023-09-07T04:02:12;100881.89;;;19.34;62.80
50592;BME280;36548;50.506;30.834;2023-09-07T04:03:22;100878.78;;;19.78;60.37
50592;BME280;36548;50.506;30.834;2023-09-07T04:04:38;100882.22;;;20.00;57.69
50592;BME280;36548;50.506;30.834;2023-09-07T04:05:50;100879.21;;;19.93;57.38
50592;BME280;36548;50.506;30.834;2023-09-07T04:06:59;100884.11;;;19.89;57.26
50592;BME280;36548;50.506;30.834;2023-09-07T04:08:14;100886.64;;;20.20;57.12
50592;BME280;36548;50.506;30.834;2023-09-07T04:09:23;100888.73;;;20.36;56.60
50592;BME280;36548;50.506;30.834;2023-09-07T04:10:33;100883.95;;;20.68;55.29
50592;BME280;36548;50.506;30.834;2023-09-07T04:11:43;100886.07;;;20.64;55.73
50592;BME280;36548;50.506;30.834;2023-09-07T04:12:58;100881.69;;;21.19;56.27
50592;BME280;36548;50.506;30.834;2023-09-07T04:14:08;100887.91;;;21.11;53.32
50592;BME280;36548;50.506;30.834;2023-09-07T04:15:18;100890.81;;;21.55;53.56
50592;BME280;36548;50.506;30.834;2023-09-07T04:16:34;100881.41;;;22.12;52.01
50592;BME280;36548;50.506;30.834;2023-09-07T04:17:45;100886.94;;;22.20;50.14
50592;BME280;36548;50.506;30.834;2023-09-07T04:19:00;100878.24;;;22.77;49.62
50592;BME280;36548;50.506;30.834;2023-09-07T04:20:11;100875.08;;;22.98;48.88
50592;BME280;36548;50.506;30.834;2023-09-07T04:21:23;100889.42;;;23.27;47.58
50592;BME280;36548;50.506;30.834;2023-09-07T04:22:33;100892.55;;;23.48;48.10
50592;BME280;36548;50.506;30.834;2023-09-07T04:23:44;100889.76;;;23.32;46.65
50592;BME280;36548;50.506;30.834;2023-09-07T04:25:00;100876.33;;;23.80;48.52
50592;BME280;36548;50.506;30.834;2023-09-07T04:26:11;100889.72;;;24.16;46.94
50592;BME280;36548;50.506;30.834;2023-09-07T04:27:39;100885.02;;;24.58;47.02
50592;BME280;36548;50.506;30.834;2023-09-07T04:28:49;100885.02;;;24.66;43.68
50592;BME280;36548;50.506;30.834;2023-09-07T04:29:58;100879.20;;;24.44;44.27
50592;BME280;36548;50.506;30.834;2023-09-07T04:31:09;100884.09;;;24.82;45.96
50592;BME280;36548;50.506;30.834;2023-09-07T04:32:25;100880.22;;;25.08;43.28
50592;BME280;36548;50.506;30.834;2023-09-07T04:33:36;100886.48;;;24.93;42.49
50592;BME280;36548;50.506;30.834;2023-09-07T04:34:57;100889.37;;;25.31;43.31
50592;BME280;36548;50.506;30.834;2023-09-07T04:36:15;100891.09;;;24.93;41.95
50592;BME280;36548;50.506;30.834;2023-09-07T04:37:27;100891.17;;;24.68;42.76
50592;BME280;36548;50.506;30.834;2023-09-07T04:38:43;100890.91;;;24.94;43.53
50592;BME280;36548;50.506;30.834;2023-09-07T04:39:53;100903.80;;;24.94;43.41
50592;BME280;36548;50.506;30.834;2023-09-07T04:41:10;100887.07;;;25.12;43.42
50592;BME280;36548;50.506;30.834;2023-09-07T04:42:21;100896.52;;;25.09;41.96
50592;BME280;36548;50.506;30.834;2023-09-07T04:43:31;100888.28;;;25.09;41.97
50592;BME280;36548;50.506;30.834;2023-09-07T04:44:40;100895.89;;;24.99;42.15
50592;BME280;36548;50.506;30.834;2023-09-07T04:45:49;100893.66;;;24.94;42.98
50592;BME280;36548;50.506;30.834;2023-09-07T04:47:00;100887.33;;;24.94;42.75
50592;BME280;36548;50.506;30.834;2023-09-07T04:48:09;100898.09;;;25.04;43.00
50592;BME280;36548;50.506;30.834;2023-09-07T04:49:20;100895.89;;;24.99;42.08
50592;BME280;36548;50.506;30.834;2023-09-07T04:50:31;100895.16;;;25.05;42.78
50592;BME280;36548;50.506;30.834;2023-09-07T04:51:47;100896.26;;;25.27;42.94
50592;BME280;36548;50.506;30.834;2023-09-07T04:52:57;100897.84;;;25.22;42.53
50592;BME280;36548;50.506;30.834;2023-09-07T04:54:13;100900.72;;;25.37;42.50
50592;BME280;36548;50.506;30.834;2023-09-07T04:55:25;100905.71;;;25.25;41.24
50592;BME280;36548;50.506;30.834;2023-09-07T04:56:41;100900.06;;;24.87;42.05
50592;BME280;36548;50.506;30.834;2023-09-07T04:57:51;100908.34;;;24.70;42.74
50592;BME280;36548;50.506;30.834;2023-09-07T04:59:01;100901.31;;;24.67;42.75
50592;BME280;36548;50.506;30.834;2023-09-07T05:00:18;100909.01;;;24.72;42.70
50592;BME280;36548;50.506;30.834;2023-09-07T05:01:28;100897.55;;;24.52;42.90
50592;BME280;36548;50.506;30.834;2023-09-07T05:02:39;100905.62;;;24.45;43.23
50592;BME280;36548;50.506;30.834;2023-09-07T05:03:56;100902.69;;;24.63;43.62
50592;BME280;36548;50.506;30.834;2023-09-07T05:05:07;100908.52;;;24.60;42.97
50592;BME280;36548;50.506;30.834;2023-09-07T05:06:23;100901.16;;;24.44;42.97
50592;BME280;36548;50.506;30.834;2023-09-07T05:07:33;100900.50;;;24.34;43.50
50592;BME280;36548;50.506;30.834;2023-09-07T05:08:43;100904.27;;;24.33;42.96
50592;BME280;36548;50.506;30.834;2023-09-07T05:09:59;100902.41;;;24.17;43.94
50592;BME280;36548;50.506;30.834;2023-09-07T05:11:09;100912.01;;;24.05;43.47
50592;BME280;36548;50.506;30.834;2023-09-07T05:12:20;100915.59;;;23.89;44.00
50592;BME280;36548;50.506;30.834;2023-09-07T05:13:35;100907.19;;;23.14;45.54
50592;BME280;36548;50.506;30.834;2023-09-07T05:14:44;100917.30;;;23.22;45.75
50592;BME280;36548;50.506;30.834;2023-09-07T05:16:00;100912.23;;;23.44;45.06
50592;BME280;36548;50.506;30.834;2023-09-07T05:17:10;100913.42;;;23.41;45.33
50592;BME280;36548;50.506;30.834;2023-09-07T05:18:26;100909.53;;;23.60;44.98
50592;BME280;36548;50.506;30.834;2023-09-07T05:19:36;100918.56;;;23.44;45.11
50592;BME280;36548;50.506;30.834;2023-09-07T05:20:51;100911.77;;;23.73;45.32
50592;BME280;36548;50.506;30.834;2023-09-07T05:22:01;100926.56;;;23.21;44.82
50592;BME280;36548;50.506;30.834;2023-09-07T05:24:40;100911.52;;;23.25;45.71
50592;BME280;36548;50.506;30.834;2023-09-07T05:25:52;100928.25;;;23.22;45.67
50592;BME280;36548;50.506;30.834;2023-09-07T05:27:08;100924.06;;;23.53;45.62
50592;BME280;36548;50.506;30.834;2023-09-07T05:28:22;100920.82;;;23.49;44.98
50592;BME280;36548;50.506;30.834;2023-09-07T05:29:37;100924.98;;;23.70;45.26
50592;BME280;36548;50.506;30.834;2023-09-07T05:30:48;100926.19;;;23.75;44.81
50592;BME280;36548;50.506;30.834;2023-09-07T05:31:58;100920.23;;;23.88;44.36
50592;BME280;36548;50.506;30.834;2023-09-07T05:33:15;100913.70;;;24.14;44.06
50592;BME280;36548;50.506;30.834;2023-09-07T05:34:25;100921.92;;;24.22;44.05
50592;BME280;36548;50.506;30.834;2023-09-07T05:35:40;100919.14;;;24.55;43.45
50592;BME280;36548;50.506;30.834;2023-09-07T05:36:50;100913.30;;;24.58;43.05
50592;BME280;36548;50.506;30.834;2023-09-07T05:38:06;100919.67;;;24.59;42.33
50592;BME280;36548;50.506;30.834;2023-09-07T05:39:16;100923.44;;;24.58;42.19
50592;BME280;36548;50.506;30.834;2023-09-07T05:40:27;100921.73;;;24.48;41.95
50592;BME280;36548;50.506;30.834;2023-09-07T05:41:43;100923.62;;;24.64;42.50
50592;BME280;36548;50.506;30.834;2023-09-07T05:42:53;100924.66;;;24.39;42.62
50592;BME280;36548;50.506;30.834;2023-09-07T05:44:10;100931.16;;;24.46;42.38
50592;BME280;36548;50.506;30.834;2023-09-07T05:45:20;100932.70;;;24.48;42.88
50592;BME280;36548;50.506;30.834;2023-09-07T05:46:56;100926.00;;;24.76;42.39
50592;BME280;36548;50.506;30.834;2023-09-07T05:48:07;100928.92;;;24.74;42.05
50592;BME280;36548;50.506;30.834;2023-09-07T05:49:19;100928.72;;;24.84;41.95
50592;BME280;36548;50.506;30.834;2023-09-07T05:50:29;100933.19;;;24.85;41.30
50592;BME280;36548;50.506;30.834;2023-09-07T05:51:44;100929.78;;;24.66;41.73
50592;BME280;36548;50.506;30.834;2023-09-07T05:52:54;100923.98;;;24.61;42.28
50592;BME280;36548;50.506;30.834;2023-09-07T05:54:10;100934.22;;;24.84;41.87
50592;BME280;36548;50.506;30.834;2023-09-07T05:55:21;100931.65;;;24.82;41.73
50592;BME280;36548;50.506;30.834;2023-09-07T05:56:32;100933.31;;;24.92;40.99
50592;BME280;36548;50.506;30.834;2023-09-07T05:57:43;100932.49;;;24.83;41.44
50592;BME280;36548;50.506;30.834;2023-09-07T05:58:58;100925.92;;;25.00;41.32
50592;BME280;36548;50.506;30.834;2023-09-07T06:00:10;100928.67;;;25.00;41.28
50592;BME280;36548;50.506;30.834;2023-09-07T06:01:27;100933.31;;;24.92;40.91
50592;BME280;36548;50.506;30.834;2023-09-07T06:02:36;100934.79;;;24.63;41.22
50592;BME280;36548;50.506;30.834;2023-09-07T06:03:45;100931.00;;;24.56;41.46
50592;BME280;36548;50.506;30.834;2023-09-07T06:05:01;100933.06;;;24.62;41.81
50592;BME280;36548;50.506;30.834;2023-09-07T06:06:10;100947.31;;;24.65;41.78
50592;BME280;36548;50.506;30.834;2023-09-07T06:07:19;100939.09;;;24.32;41.66
50592;BME280;36548;50.506;30.834;2023-09-07T06:08:30;100939.77;;;23.93;42.10
50592;BME280;36548;50.506;30.834;2023-09-07T06:09:45;100935.98;;;23.94;42.58
50592;BME280;36548;50.506;30.834;2023-09-07T06:10:55;100942.66;;;23.92;42.96
50592;BME280;36548;50.506;30.834;2023-09-07T06:12:07;100943.32;;;23.86;42.71
50592;BME280;36548;50.506;30.834;2023-09-07T06:13:23;100946.61;;;24.14;42.67
50592;BME280;36548;50.506;30.834;2023-09-07T06:14:33;100945.10;;;24.20;42.29
50592;BME280;36548;50.506;30.834;2023-09-07T06:15:43;100943.69;;;24.40;41.75
50592;BME280;36548;50.506;30.834;2023-09-07T06:16:59;100939.20;;;24.72;41.80
50592;BME280;36548;50.506;30.834;2023-09-07T06:18:10;100951.55;;;24.76;41.17
50592;BME280;36548;50.506;30.834;2023-09-07T06:19:25;100938.98;;;24.90;40.79
50592;BME280;36548;50.506;30.834;2023-09-07T06:20:35;100942.09;;;24.87;41.20
50592;BME280;36548;50.506;30.834;2023-09-07T06:21:50;100956.92;;;25.17;40.67
50592;BME280;36548;50.506;30.834;2023-09-07T06:23:00;100953.84;;;25.12;39.78
50592;BME280;36548;50.506;30.834;2023-09-07T06:24:09;100948.14;;;24.74;40.54
50592;BME280;36548;50.506;30.834;2023-09-07T06:25:24;100951.30;;;25.02;40.71
50592;BME280;36548;50.506;30.834;2023-09-07T06:26:36;100953.03;;;25.04;40.42
50592;BME280;36548;50.506;30.834;2023-09-07T06:27:46;100962.75;;;24.33;40.92
50592;BME280;36548;50.506;30.834;2023-09-07T06:28:55;100954.67;;;24.24;41.10
50592;BME280;36548;50.506;30.834;2023-09-07T06:30:11;100956.04;;;24.28;41.45
50592;BME280;36548;50.506;30.834;2023-09-07T06:31:20;100958.81;;;24.20;41.70
50592;BME280;36548;50.506;30.834;2023-09-07T06:32:35;100955.02;;;24.37;41.82
50592;BME280;36548;50.506;30.834;2023-09-07T06:33:45;100955.53;;;24.49;41.61